Time;durP1;ratioP1;P1;durP2;ratioP2;P2;SDS_P1;SDS_P2;PMS_P1;PMS_P2;Temp;Humidity;BMP_temperature;BMP_pressure;BME280_temperature;BME280_humidity;BME280_pressure;Samples;Min_cycle;Max_cycle;Signal;HPM_P1;HPM_P2
2021/12/14 00:01:19;;;;;;;;;36.00;31.00;;;;;;;;5033076;28;46917;-71
2021/12/14 00:03:45;;;;;;;;;34.75;27.75;;;;;;;;5031304;28;45528;-69
2021/12/14 00:06:12;;;;;;;;;31.50;28.50;;;;;;;;5033929;28;45482;-71
2021/12/14 00:08:48;;;;;;;;;29.50;24.50;;;;;;;;5035648;28;46371;-71
2021/12/14 00:11:31;;;;;;;;;26.00;22.75;;;;;;;;5032044;28;45553;-70
2021/12/14 00:14:13;;;;;;;;;26.50;23.50;;;;;;;;5032270;28;45603;-71
2021/12/14 00:16:39;;;;;;;;;27.00;23.25;;;;;;;;5036487;28;45498;-70
2021/12/14 00:19:04;;;;;;;;;24.25;22.75;;;;;;;;5036970;28;45554;-70
2021/12/14 00:21:31;;;;;;;;;20.50;17.00;;;;;;;;5036977;28;47687;-70
2021/12/14 00:24:07;;;;;;;;;22.75;20.25;;;;;;;;5036208;28;45499;-70
2021/12/14 00:26:56;;;;;;;;;24.75;24.25;;;;;;;;5036100;28;45466;-70
2021/12/14 00:29:25;;;;;;;;;20.25;18.75;;;;;;;;5020045;28;46098;-70
2021/12/14 00:31:52;;;;;;;;;22.75;21.25;;;;;;;;5035886;28;45443;-71
2021/12/14 00:34:23;;;;;;;;;20.75;19.00;;;;;;;;5037566;28;45475;-70
2021/12/14 00:36:49;;;;;;;;;21.50;19.00;;;;;;;;5036634;28;45443;-71
2021/12/14 00:39:15;;;;;;;;;21.25;17.75;;;;;;;;5035965;28;46131;-71
2021/12/14 00:41:40;;;;;;;;;22.50;21.50;;;;;;;;5035574;28;45514;-71
2021/12/14 00:44:06;;;;;;;;;23.00;18.25;;;;;;;;5036386;28;45450;-71
2021/12/14 00:46:33;;;;;;;;;18.00;16.25;;;;;;;;5036912;28;45373;-71
2021/12/14 00:48:58;;;;;;;;;16.00;15.75;;;;;;;;5036308;28;47115;-71
2021/12/14 00:51:28;;;;;;;;;24.50;22.00;;;;;;;;5032945;28;45478;-70
2021/12/14 00:53:53;;;;;;;;;22.00;18.75;;;;;;;;5027226;28;45556;-70
2021/12/14 00:56:18;;;;;;;;;22.50;17.50;;;;;;;;5035861;28;45545;-70
2021/12/14 00:58:44;;;;;;;;;21.25;19.25;;;;;;;;5036931;28;46862;-71
2021/12/14 01:01:12;;;;;;;;;23.25;19.00;;;;;;;;5035780;28;45452;-71
2021/12/14 01:03:42;;;;;;;;;23.75;18.75;;;;;;;;5035746;28;45442;-71
2021/12/14 01:06:10;;;;;;;;;15.25;14.00;;;;;;;;5032451;28;45567;-70
2021/12/14 01:08:39;;;;;;;;;19.25;16.50;;;;;;;;5036306;28;46867;-71
2021/12/14 01:11:14;;;;;;;;;15.75;13.00;;;;;;;;5035641;28;45439;-71
2021/12/14 01:13:45;;;;;;;;;13.75;12.25;;;;;;;;5033487;28;45297;-70
2021/12/14 01:16:19;;;;;;;;;16.25;13.50;;;;;;;;5036258;28;45573;-71
2021/12/14 01:19:11;;;;;;;;;18.75;15.00;;;;;;;;5035206;28;46428;-71
2021/12/14 01:24:08;;;;;;;;;17.25;15.00;;;;;;;;5035831;28;45391;-71
2021/12/14 01:26:35;;;;;;;;;28.00;18.00;;;;;;;;5035512;28;45466;-70
2021/12/14 01:29:01;;;;;;;;;18.50;16.50;;;;;;;;5035927;28;46513;-70
2021/12/14 01:31:31;;;;;;;;;16.00;14.25;;;;;;;;5036464;28;45661;-70
2021/12/14 01:34:02;;;;;;;;;14.50;13.25;;;;;;;;5035332;28;46980;-71
2021/12/14 01:36:41;;;;;;;;;16.75;15.75;;;;;;;;5034920;28;45457;-71
2021/12/14 01:39:22;;;;;;;;;18.50;17.50;;;;;;;;5062156;28;47374;-70
2021/12/14 01:42:08;;;;;;;;;23.00;17.75;;;;;;;;5074596;28;45677;-70
2021/12/14 01:44:42;;;;;;;;;21.00;17.25;;;;;;;;5074927;27;45438;-70
2021/12/14 01:47:10;;;;;;;;;26.50;18.50;;;;;;;;5069676;27;45460;-69
2021/12/14 01:49:36;;;;;;;;;16.75;14.75;;;;;;;;5074237;27;46562;-70
2021/12/14 01:52:05;;;;;;;;;13.75;12.75;;;;;;;;5075988;27;45276;-70
2021/12/14 01:54:34;;;;;;;;;21.25;17.25;;;;;;;;5075894;28;45347;-70
2021/12/14 01:57:02;;;;;;;;;14.75;13.25;;;;;;;;5073890;27;45582;-70
2021/12/14 01:59:34;;;;;;;;;13.75;11.75;;;;;;;;5075092;28;45382;-71
2021/12/14 02:04:54;;;;;;;;;12.00;11.00;;;;;;;;5056286;28;45712;-69
2021/12/14 02:07:20;;;;;;;;;13.00;11.25;;;;;;;;5075544;27;45415;-70
2021/12/14 02:09:48;;;;;;;;;18.25;14.00;;;;;;;;5074854;28;47052;-71
2021/12/14 02:12:18;;;;;;;;;13.00;9.00;;;;;;;;5073609;28;45399;-71
2021/12/14 02:14:45;;;;;;;;;11.00;9.25;;;;;;;;5074741;27;45540;-70
2021/12/14 02:17:12;;;;;;;;;13.75;13.75;;;;;;;;5074168;28;45414;-70
2021/12/14 02:19:37;;;;;;;;;16.00;15.00;;;;;;;;5074899;28;46122;-68
2021/12/14 02:22:04;;;;;;;;;13.50;10.50;;;;;;;;5075135;27;45458;-71
2021/12/14 02:24:30;;;;;;;;;11.75;10.50;;;;;;;;5074668;27;45440;-71
2021/12/14 02:26:55;;;;;;;;;16.00;13.75;;;;;;;;5074179;28;45284;-70
2021/12/14 02:29:23;;;;;;;;;20.00;13.50;;;;;;;;5069110;28;46193;-69
2021/12/14 02:31:48;;;;;;;;;14.25;12.75;;;;;;;;5073174;28;45433;-70
2021/12/14 02:34:14;;;;;;;;;15.25;15.25;;;;;;;;5074380;28;45572;-71
2021/12/14 02:36:42;;;;;;;;;18.75;14.50;;;;;;;;5075294;28;45387;-70
2021/12/14 02:39:22;;;;;;;;;16.25;15.00;;;;;;;;5074473;28;46080;-70
2021/12/14 02:41:49;;;;;;;;;16.75;14.50;;;;;;;;5073890;27;45503;-71
2021/12/14 02:44:16;;;;;;;;;18.00;17.00;;;;;;;;5070090;28;45602;-70
2021/12/14 02:46:45;;;;;;;;;21.75;16.00;;;;;;;;5074690;27;45477;-70
2021/12/14 02:49:12;;;;;;;;;9.25;9.00;;;;;;;;5071649;28;46374;-71
2021/12/14 02:51:39;;;;;;;;;14.25;13.00;;;;;;;;5074791;28;45434;-70
2021/12/14 02:54:07;;;;;;;;;21.25;20.50;;;;;;;;5073951;28;45426;-70
2021/12/14 02:56:33;;;;;;;;;23.25;20.25;;;;;;;;5074299;27;45572;-69
2021/12/14 02:59:00;;;;;;;;;15.75;13.50;;;;;;;;5074029;28;47231;-70
2021/12/14 03:01:26;;;;;;;;;19.25;15.75;;;;;;;;5075035;28;45316;-70
2021/12/14 03:03:51;;;;;;;;;19.00;15.00;;;;;;;;5055903;28;45269;-70
2021/12/14 03:06:21;;;;;;;;;18.50;17.00;;;;;;;;5072713;27;45360;-70
2021/12/14 03:08:57;;;;;;;;;16.50;15.75;;;;;;;;5073349;27;47164;-70
2021/12/14 03:11:23;;;;;;;;;10.00;10.00;;;;;;;;5073419;28;45451;-70
2021/12/14 03:13:51;;;;;;;;;14.00;13.00;;;;;;;;5075346;28;45265;-70
2021/12/14 03:16:21;;;;;;;;;14.00;12.75;;;;;;;;5073618;28;45506;-69
2021/12/14 03:18:49;;;;;;;;;15.75;12.50;;;;;;;;5073476;28;46301;-70
2021/12/14 03:21:17;;;;;;;;;19.00;17.00;;;;;;;;5075037;28;45549;-70
2021/12/14 03:24:02;;;;;;;;;14.00;13.00;;;;;;;;5073731;28;45477;-70
2021/12/14 03:26:30;;;;;;;;;14.00;14.00;;;;;;;;5073754;28;45637;-72
2021/12/14 03:28:57;;;;;;;;;15.25;13.25;;;;;;;;5073925;28;46349;-70
2021/12/14 03:31:22;;;;;;;;;18.00;16.50;;;;;;;;5075135;27;45391;-70
2021/12/14 03:33:59;;;;;;;;;14.00;13.00;;;;;;;;5074516;28;45417;-72
2021/12/14 03:36:33;;;;;;;;;16.00;14.00;;;;;;;;5074841;28;46095;-70
2021/12/14 03:38:58;;;;;;;;;20.50;17.75;;;;;;;;5069295;28;47611;-70
2021/12/14 03:41:29;;;;;;;;;21.50;18.50;;;;;;;;5075279;28;45501;-70
2021/12/14 03:43:58;;;;;;;;;21.50;19.50;;;;;;;;5060332;28;45674;-70
2021/12/14 03:46:26;;;;;;;;;25.00;20.75;;;;;;;;5078408;27;45332;-70
2021/12/14 03:48:51;;;;;;;;;22.50;19.00;;;;;;;;5076808;27;45718;-70
2021/12/14 03:51:21;;;;;;;;;17.50;16.25;;;;;;;;5077784;27;45295;-70
2021/12/14 03:53:48;;;;;;;;;19.00;18.25;;;;;;;;5077495;28;45431;-70
2021/12/14 03:56:13;;;;;;;;;18.25;16.00;;;;;;;;5077801;27;45370;-69
2021/12/14 03:58:40;;;;;;;;;16.25;14.75;;;;;;;;5077418;27;45430;-70
2021/12/14 04:01:11;;;;;;;;;17.00;15.50;;;;;;;;5077165;27;45852;-70
2021/12/14 04:03:36;;;;;;;;;14.00;13.50;;;;;;;;5055051;28;45533;-70
2021/12/14 04:06:03;;;;;;;;;21.00;19.25;;;;;;;;5077641;27;45314;-70
2021/12/14 04:08:29;;;;;;;;;20.75;18.25;;;;;;;;5076494;27;46318;-70
2021/12/14 04:10:56;;;;;;;;;19.50;16.50;;;;;;;;5077061;27;45613;-70
2021/12/14 04:13:23;;;;;;;;;21.00;17.25;;;;;;;;5078641;27;45345;-70
2021/12/14 04:15:48;;;;;;;;;20.75;18.50;;;;;;;;5076520;27;45593;-69
2021/12/14 04:18:14;;;;;;;;;24.50;19.25;;;;;;;;5075020;27;45528;-71
2021/12/14 04:20:41;;;;;;;;;24.25;18.00;;;;;;;;5077083;27;45495;-71
2021/12/14 04:23:12;;;;;;;;;19.00;18.00;;;;;;;;5043279;28;45381;-71
2021/12/14 04:25:37;;;;;;;;;19.25;15.25;;;;;;;;5074692;27;45450;-71
2021/12/14 04:28:08;;;;;;;;;19.50;17.75;;;;;;;;5076462;28;47379;-71
2021/12/14 04:30:34;;;;;;;;;17.25;16.50;;;;;;;;5076945;27;45421;-70
2021/12/14 04:33:02;;;;;;;;;22.25;22.25;;;;;;;;5077515;28;45337;-70
2021/12/14 04:35:30;;;;;;;;;14.25;12.50;;;;;;;;5077126;27;45464;-71
2021/12/14 04:37:58;;;;;;;;;15.50;12.50;;;;;;;;5076237;27;45403;-71
2021/12/14 04:51:54;;;;;;;;;22.75;19.00;;;;;;;;5076472;27;45403;-70
2021/12/14 04:54:07;;;;;;;;;22.25;21.00;;;;;;;;5076021;27;45541;-70
2021/12/14 04:56:38;;;;;;;;;23.00;18.75;;;;;;;;5059266;28;45454;-69
2021/12/14 04:59:03;;;;;;;;;20.00;18.25;;;;;;;;5076432;27;45409;-69
2021/12/14 05:01:31;;;;;;;;;24.50;22.50;;;;;;;;5076592;27;45404;-70
2021/12/14 05:03:58;;;;;;;;;24.25;22.75;;;;;;;;5076489;27;45303;-71
2021/12/14 05:06:26;;;;;;;;;17.25;17.25;;;;;;;;5076044;27;45537;-71
2021/12/14 05:09:25;;;;;;;;;16.50;15.75;;;;;;;;5070592;27;46518;-70
2021/12/14 05:11:55;;;;;;;;;26.25;19.50;;;;;;;;5076036;28;45633;-69
2021/12/14 05:14:20;;;;;;;;;16.25;15.50;;;;;;;;5075612;27;45489;-70
2021/12/14 05:16:46;;;;;;;;;21.00;19.50;;;;;;;;5075967;27;45479;-71
2021/12/14 05:19:11;;;;;;;;;20.25;19.75;;;;;;;;5076254;28;46633;-70
2021/12/14 05:21:42;;;;;;;;;19.50;16.00;;;;;;;;5075093;27;45509;-70
2021/12/14 05:24:08;;;;;;;;;27.00;22.75;;;;;;;;5075888;27;45383;-70
2021/12/14 05:26:34;;;;;;;;;21.75;21.00;;;;;;;;5052616;28;45252;-71
2021/12/14 05:28:59;;;;;;;;;23.25;21.00;;;;;;;;5074628;28;45451;-70
2021/12/14 05:31:25;;;;;;;;;20.50;17.00;;;;;;;;5076216;28;45322;-70
2021/12/14 05:33:51;;;;;;;;;19.00;15.50;;;;;;;;5075204;28;45439;-69
2021/12/14 05:36:19;;;;;;;;;18.25;16.50;;;;;;;;5074819;28;45300;-71
2021/12/14 05:43:55;;;;;;;;;24.75;20.00;;;;;;;;5074828;27;45351;-71
2021/12/14 05:46:21;;;;;;;;;20.75;19.50;;;;;;;;5076032;27;45337;-69
2021/12/14 05:48:47;;;;;;;;;17.00;15.75;;;;;;;;5074863;27;46432;-72
2021/12/14 05:51:12;;;;;;;;;28.25;23.00;;;;;;;;5074852;27;45340;-70
2021/12/14 05:53:39;;;;;;;;;18.25;16.00;;;;;;;;5074250;27;45514;-70
2021/12/14 05:56:15;;;;;;;;;24.75;19.25;;;;;;;;5075000;27;45253;-70
2021/12/14 05:58:41;;;;;;;;;20.25;14.00;;;;;;;;5071317;27;46125;-70
2021/12/14 06:01:08;;;;;;;;;20.00;17.25;;;;;;;;5075002;28;45284;-70
2021/12/14 06:03:38;;;;;;;;;24.00;17.75;;;;;;;;5074737;27;45544;-71
2021/12/14 06:06:03;;;;;;;;;18.00;14.50;;;;;;;;5073008;27;45205;-71
2021/12/14 06:08:31;;;;;;;;;17.25;17.25;;;;;;;;5072813;28;45477;-70
2021/12/14 06:10:57;;;;;;;;;19.50;16.50;;;;;;;;5074114;27;45458;-71
2021/12/14 06:13:33;;;;;;;;;18.75;14.25;;;;;;;;5075271;27;45300;-71
2021/12/14 06:15:58;;;;;;;;;19.75;18.00;;;;;;;;5074050;27;45367;-71
2021/12/14 06:18:24;;;;;;;;;19.00;18.00;;;;;;;;5073541;27;45470;-70
2021/12/14 06:20:50;;;;;;;;;29.25;24.75;;;;;;;;5074385;27;45320;-70
2021/12/14 06:23:21;;;;;;;;;18.00;17.25;;;;;;;;5073910;27;45523;-70
2021/12/14 06:25:47;;;;;;;;;23.75;22.50;;;;;;;;5072891;28;45326;-71
2021/12/14 06:28:20;;;;;;;;;22.00;17.25;;;;;;;;5074215;28;46170;-71
2021/12/14 06:30:46;;;;;;;;;18.25;13.00;;;;;;;;5073689;28;45226;-71
2021/12/14 06:33:11;;;;;;;;;17.25;15.25;;;;;;;;5073567;28;45446;-71
2021/12/14 06:35:40;;;;;;;;;34.00;28.25;;;;;;;;5074050;28;45435;-72
2021/12/14 06:38:25;;;;;;;;;20.25;16.75;;;;;;;;5059385;28;46200;-71
2021/12/14 06:40:50;;;;;;;;;23.00;17.50;;;;;;;;5070429;27;45491;-73
2021/12/14 06:43:17;;;;;;;;;15.50;14.75;;;;;;;;5074043;27;45509;-71
2021/12/14 06:45:47;;;;;;;;;22.00;20.75;;;;;;;;5073135;27;45489;-71
2021/12/14 06:48:13;;;;;;;;;16.00;15.00;;;;;;;;5072905;27;47512;-71
2021/12/14 06:50:41;;;;;;;;;19.75;17.00;;;;;;;;5072852;27;45485;-70
2021/12/14 06:53:08;;;;;;;;;19.00;15.75;;;;;;;;5058064;28;45320;-71
2021/12/14 06:55:34;;;;;;;;;16.25;13.25;;;;;;;;5067912;27;45304;-71
2021/12/14 06:58:06;;;;;;;;;17.75;16.25;;;;;;;;5071332;28;45287;-71
2021/12/14 07:00:32;;;;;;;;;18.50;16.00;;;;;;;;5072304;27;45572;-71
2021/12/14 07:02:57;;;;;;;;;20.25;17.00;;;;;;;;5072439;28;45415;-70
2021/12/14 07:05:24;;;;;;;;;21.50;17.25;;;;;;;;5072548;28;45498;-71
2021/12/14 07:07:49;;;;;;;;;22.00;20.50;;;;;;;;5072242;27;45501;-71
2021/12/14 07:10:15;;;;;;;;;22.75;16.25;;;;;;;;5070484;28;45450;-71
2021/12/14 07:12:41;;;;;;;;;25.75;23.75;;;;;;;;5072636;27;45371;-71
2021/12/14 07:15:18;;;;;;;;;26.25;23.00;;;;;;;;5073163;27;45548;-72
2021/12/14 07:17:49;;;;;;;;;23.00;20.75;;;;;;;;5072126;27;45508;-71
2021/12/14 07:20:21;;;;;;;;;17.25;16.00;;;;;;;;5071573;28;45342;-71
2021/12/14 07:22:48;;;;;;;;;20.00;18.00;;;;;;;;5071393;27;45335;-72
2021/12/14 07:25:23;;;;;;;;;20.75;20.75;;;;;;;;5072206;28;45354;-72
2021/12/14 07:27:51;;;;;;;;;27.50;25.50;;;;;;;;5072380;28;45435;-72
2021/12/14 07:30:21;;;;;;;;;27.00;23.50;;;;;;;;5072188;28;45455;-71
2021/12/14 07:32:46;;;;;;;;;28.50;24.25;;;;;;;;5070182;28;45342;-72
2021/12/14 07:35:27;;;;;;;;;30.25;27.50;;;;;;;;5072846;28;45382;-69
2021/12/14 07:37:57;;;;;;;;;23.00;20.00;;;;;;;;5074483;27;45563;-72
2021/12/14 07:40:24;;;;;;;;;31.25;24.25;;;;;;;;5072242;28;45463;-70
2021/12/14 07:43:04;;;;;;;;;19.75;16.75;;;;;;;;5072742;27;45552;-71
2021/12/14 07:45:29;;;;;;;;;23.75;20.25;;;;;;;;5069178;28;45388;-71
2021/12/14 07:47:55;;;;;;;;;28.25;22.75;;;;;;;;5071153;27;46140;-73
2021/12/14 07:50:34;;;;;;;;;29.00;22.75;;;;;;;;5066952;28;45400;-71
2021/12/14 07:53:00;;;;;;;;;31.75;24.75;;;;;;;;5068826;28;45478;-72
2021/12/14 07:55:27;;;;;;;;;26.75;24.00;;;;;;;;5069638;28;45465;-71
2021/12/14 07:57:52;;;;;;;;;31.25;25.50;;;;;;;;5067928;27;46573;-70
2021/12/14 08:00:22;;;;;;;;;25.75;21.25;;;;;;;;5056410;28;45547;-70
2021/12/14 08:02:49;;;;;;;;;28.50;24.75;;;;;;;;5051596;27;45566;-71
2021/12/14 08:05:17;;;;;;;;;32.50;21.50;;;;;;;;5069164;28;45453;-71
2021/12/14 08:07:44;;;;;;;;;27.75;20.75;;;;;;;;5055804;28;46090;-71
2021/12/14 08:10:14;;;;;;;;;26.25;20.75;;;;;;;;5058745;28;45505;-70
2021/12/14 08:12:47;;;;;;;;;27.75;21.00;;;;;;;;5066565;28;45450;-71
2021/12/14 08:15:25;;;;;;;;;26.00;19.75;;;;;;;;5059491;27;45451;-70
2021/12/14 08:18:10;;;;;;;;;26.50;23.50;;;;;;;;5062844;28;45511;-70
2021/12/14 08:20:38;;;;;;;;;27.25;25.25;;;;;;;;5053353;28;45560;-69
2021/12/14 08:23:12;;;;;;;;;26.25;24.25;;;;;;;;5049573;28;45530;-70
2021/12/14 08:25:39;;;;;;;;;23.25;20.25;;;;;;;;5067813;28;45517;-69
2021/12/14 08:28:06;;;;;;;;;27.50;24.25;;;;;;;;5053178;28;46582;-69
2021/12/14 08:30:32;;;;;;;;;35.75;31.25;;;;;;;;5057709;28;45501;-69
2021/12/14 08:32:58;;;;;;;;;25.25;19.75;;;;;;;;5069585;28;45583;-72
2021/12/14 08:35:23;;;;;;;;;23.75;19.50;;;;;;;;5069143;28;45434;-70
2021/12/14 08:37:52;;;;;;;;;24.50;23.00;;;;;;;;5058219;27;45619;-70
2021/12/14 08:40:19;;;;;;;;;27.00;25.00;;;;;;;;5063765;28;45456;-71
2021/12/14 08:43:02;;;;;;;;;23.00;21.25;;;;;;;;5052475;28;45783;-69
2021/12/14 08:45:29;;;;;;;;;35.75;31.75;;;;;;;;5065244;27;45521;-69
2021/12/14 08:48:12;;;;;;;;;24.50;21.50;;;;;;;;5073522;27;45712;-69
2021/12/14 08:50:44;;;;;;;;;25.00;23.25;;;;;;;;5071056;27;45419;-70
2021/12/14 08:53:09;;;;;;;;;33.00;30.75;;;;;;;;5052353;28;45388;-70
2021/12/14 08:55:36;;;;;;;;;31.50;29.75;;;;;;;;5068566;28;45334;-68
2021/12/14 08:58:03;;;;;;;;;30.25;27.50;;;;;;;;5070444;28;46746;-68
2021/12/14 09:00:33;;;;;;;;;30.25;25.50;;;;;;;;5066393;28;46585;-69
2021/12/14 09:03:00;;;;;;;;;24.75;21.25;;;;;;;;5072801;28;45407;-69
2021/12/14 09:05:29;;;;;;;;;32.75;30.75;;;;;;;;5072959;27;45634;-69
2021/12/14 09:07:55;;;;;;;;;22.00;20.00;;;;;;;;5069338;28;45311;-69
2021/12/14 09:10:23;;;;;;;;;26.25;20.00;;;;;;;;5054138;28;45372;-69
2021/12/14 09:12:50;;;;;;;;;26.50;23.50;;;;;;;;5045843;28;45539;-69
2021/12/14 09:15:24;;;;;;;;;34.50;24.25;;;;;;;;5072493;28;45262;-70
2021/12/14 09:17:49;;;;;;;;;25.25;22.75;;;;;;;;5043751;28;47043;-70
2021/12/14 09:20:26;;;;;;;;;27.25;23.00;;;;;;;;5069727;27;45672;-69
2021/12/14 09:22:53;;;;;;;;;31.25;27.75;;;;;;;;5073857;27;45435;-69
2021/12/14 09:25:21;;;;;;;;;29.25;25.75;;;;;;;;5071174;28;45535;-69
2021/12/14 09:27:46;;;;;;;;;30.25;24.00;;;;;;;;5071740;27;46308;-70
2021/12/14 09:30:15;;;;;;;;;21.50;16.50;;;;;;;;5071517;27;45349;-70
2021/12/14 09:32:42;;;;;;;;;39.25;28.50;;;;;;;;5061725;27;45316;-68
2021/12/14 09:35:09;;;;;;;;;27.75;23.00;;;;;;;;5060540;27;45462;-69
2021/12/14 09:37:35;;;;;;;;;28.00;25.75;;;;;;;;5068681;28;46444;-70
2021/12/14 09:40:04;;;;;;;;;28.75;21.50;;;;;;;;5071639;27;45626;-69
2021/12/14 09:42:31;;;;;;;;;30.50;27.25;;;;;;;;5072443;27;45579;-68
2021/12/14 09:44:58;;;;;;;;;33.00;26.25;;;;;;;;5071510;28;45483;-69
2021/12/14 09:47:26;;;;;;;;;22.25;22.00;;;;;;;;5071831;27;46660;-69
2021/12/14 09:49:53;;;;;;;;;23.00;21.75;;;;;;;;5071593;27;45706;-69
2021/12/14 09:52:24;;;;;;;;;35.00;29.25;;;;;;;;5068415;28;45394;-69
2021/12/14 09:54:50;;;;;;;;;23.75;22.25;;;;;;;;5063270;27;45567;-67
2021/12/14 09:57:19;;;;;;;;;30.25;25.75;;;;;;;;5070018;27;45521;-68
2021/12/14 09:59:44;;;;;;;;;24.50;20.50;;;;;;;;5072168;27;45451;-68
2021/12/14 10:02:33;;;;;;;;;33.50;27.50;;;;;;;;5073298;28;45390;-68
2021/12/14 10:05:11;;;;;;;;;29.50;26.50;;;;;;;;5056828;28;45560;-69
2021/12/14 10:07:37;;;;;;;;;31.75;30.50;;;;;;;;5065180;27;48697;-69
2021/12/14 10:10:07;;;;;;;;;25.75;21.00;;;;;;;;5069390;28;45533;-69
2021/12/14 10:15:06;;;;;;;;;25.50;24.75;;;;;;;;5068308;27;45558;-69
2021/12/14 10:17:31;;;;;;;;;27.75;25.25;;;;;;;;5071740;27;46226;-69
2021/12/14 10:19:56;;;;;;;;;35.50;30.50;;;;;;;;5071514;28;45579;-70
2021/12/14 10:22:25;;;;;;;;;31.50;25.00;;;;;;;;5071663;28;45422;-69
2021/12/14 10:24:54;;;;;;;;;31.50;28.00;;;;;;;;5071205;28;46028;-70
2021/12/14 10:27:21;;;;;;;;;30.25;27.50;;;;;;;;5071997;27;45811;-67
2021/12/14 10:29:46;;;;;;;;;25.25;23.75;;;;;;;;5073191;27;45316;-67
2021/12/14 10:32:17;;;;;;;;;24.75;23.25;;;;;;;;5072399;28;45453;-68
2021/12/14 10:34:46;;;;;;;;;24.00;21.50;;;;;;;;5072600;27;45574;-67
2021/12/14 10:37:18;;;;;;;;;31.00;22.50;;;;;;;;5070826;28;45422;-68
2021/12/14 10:42:53;;;;;;;;;32.25;25.00;;;;;;;;5001257;28;45554;-67
2021/12/14 10:45:20;;;;;;;;;32.50;28.50;;;;;;;;4996266;28;45666;-67
2021/12/14 10:47:46;;;;;;;;;31.25;24.25;;;;;;;;4983944;28;46013;-68
2021/12/14 10:50:14;;;;;;;;;28.75;23.75;;;;;;;;5004572;28;45608;-69
2021/12/14 10:52:42;;;;;;;;;30.50;25.25;;;;;;;;5009633;28;45416;-67
2021/12/14 10:55:11;;;;;;;;;32.00;29.25;;;;;;;;5007841;28;45483;-69
2021/12/14 10:57:36;;;;;;;;;30.25;26.50;;;;;;;;4990857;28;46231;-70
2021/12/14 11:00:05;;;;;;;;;32.25;28.50;;;;;;;;4992447;28;45408;-68
2021/12/14 11:02:39;;;;;;;;;41.50;32.00;;;;;;;;5008345;28;45523;-69
2021/12/14 11:05:05;;;;;;;;;31.75;29.25;;;;;;;;5013292;28;45419;-70
2021/12/14 11:07:38;;;;;;;;;30.75;27.00;;;;;;;;5007990;28;47427;-70
2021/12/14 11:10:08;;;;;;;;;34.50;26.00;;;;;;;;5008728;28;45816;-69
2021/12/14 11:12:36;;;;;;;;;29.25;27.25;;;;;;;;5003236;28;45312;-69
2021/12/14 11:15:07;;;;;;;;;31.00;30.75;;;;;;;;5004928;28;45336;-71
2021/12/14 11:20:22;;;;;;;;;29.50;27.25;;;;;;;;5042580;27;45606;-70
2021/12/14 11:22:56;;;;;;;;;28.75;23.75;;;;;;;;5068378;27;45390;-69
2021/12/14 11:25:24;;;;;;;;;33.25;27.75;;;;;;;;5061031;28;45462;-71
2021/12/14 11:27:53;;;;;;;;;25.75;23.50;;;;;;;;5066760;28;45485;-68
2021/12/14 11:30:23;;;;;;;;;26.75;25.25;;;;;;;;5071082;28;45806;-69
2021/12/14 11:33:28;;;;;;;;;25.00;22.75;;;;;;;;5070860;28;45458;-70
2021/12/14 11:35:54;;;;;;;;;31.00;28.25;;;;;;;;5000672;28;45628;-70
2021/12/14 11:38:24;;;;;;;;;38.25;30.00;;;;;;;;5006684;28;45633;-70
2021/12/14 11:40:49;;;;;;;;;28.00;26.75;;;;;;;;5008736;28;45463;-70
2021/12/14 11:43:17;;;;;;;;;30.00;26.75;;;;;;;;5004401;28;45424;-70
2021/12/14 11:45:46;;;;;;;;;30.75;28.25;;;;;;;;5006493;28;45559;-70
2021/12/14 11:48:11;;;;;;;;;27.00;25.25;;;;;;;;5007527;28;46313;-69
2021/12/14 11:50:38;;;;;;;;;30.75;28.25;;;;;;;;5007188;28;45547;-69
2021/12/14 11:53:06;;;;;;;;;35.25;29.75;;;;;;;;5007320;28;45782;-71
2021/12/14 11:55:34;;;;;;;;;29.00;27.25;;;;;;;;4997672;28;45476;-70
2021/12/14 11:58:16;;;;;;;;;35.50;29.50;;;;;;;;4998089;28;45470;-70
2021/12/14 12:00:52;;;;;;;;;38.00;31.50;;;;;;;;4998658;28;45480;-70
2021/12/14 12:03:26;;;;;;;;;33.25;29.25;;;;;;;;4999856;28;45832;-70
2021/12/14 12:06:05;;;;;;;;;30.75;28.50;;;;;;;;5012061;28;45526;-70
2021/12/14 12:11:15;;;;;;;;;41.50;34.75;;;;;;;;5067086;27;45514;-71
2021/12/14 12:13:41;;;;;;;;;36.00;31.00;;;;;;;;5068429;28;45887;-70
2021/12/14 12:16:14;;;;;;;;;30.75;27.50;;;;;;;;5063019;27;45438;-70
2021/12/14 12:18:59;;;;;;;;;38.25;31.50;;;;;;;;5068917;28;45509;-69
2021/12/14 12:21:29;;;;;;;;;38.00;33.50;;;;;;;;5062960;28;45566;-70
2021/12/14 12:23:57;;;;;;;;;47.25;35.00;;;;;;;;5063671;28;49685;-70
2021/12/14 12:26:25;;;;;;;;;44.00;35.50;;;;;;;;5061383;27;45966;-71
2021/12/14 12:28:51;;;;;;;;;43.75;34.75;;;;;;;;5060021;28;46657;-71
2021/12/14 12:31:20;;;;;;;;;46.25;38.25;;;;;;;;5069654;27;45573;-70
2021/12/14 12:33:45;;;;;;;;;40.75;35.75;;;;;;;;5065560;27;45605;-72
2021/12/14 12:36:13;;;;;;;;;42.50;34.00;;;;;;;;5066291;27;45500;-70
2021/12/14 12:38:39;;;;;;;;;38.00;33.25;;;;;;;;5054819;28;47588;-71
2021/12/14 12:41:25;;;;;;;;;43.50;36.00;;;;;;;;5077830;28;45425;-80
2021/12/14 12:44:01;;;;;;;;;45.75;34.25;;;;;;;;5067323;27;45361;-85
2021/12/14 12:46:30;;;;;;;;;33.00;29.25;;;;;;;;5073643;28;45438;-85
2021/12/14 12:49:06;;;;;;;;;32.75;28.25;;;;;;;;5064606;28;46577;-82
2021/12/14 12:51:40;;;;;;;;;35.50;31.25;;;;;;;;5079086;27;45671;-82
2021/12/14 12:54:10;;;;;;;;;30.25;27.25;;;;;;;;5069740;27;45403;-81
2021/12/14 12:59:11;;;;;;;;;39.25;30.75;;;;;;;;5051633;28;45273;-81
2021/12/14 13:01:36;;;;;;;;;38.00;32.75;;;;;;;;5053071;28;45473;-80
2021/12/14 13:04:01;;;;;;;;;34.00;31.00;;;;;;;;5061462;28;45420;-80
2021/12/14 13:06:26;;;;;;;;;37.25;34.00;;;;;;;;5061961;28;45324;-81
2021/12/14 13:08:55;;;;;;;;;32.00;31.00;;;;;;;;5055938;28;46759;-82
2021/12/14 13:11:32;;;;;;;;;40.75;35.75;;;;;;;;5057427;28;44970;-81
2021/12/14 13:14:00;;;;;;;;;39.00;33.00;;;;;;;;5070781;28;45861;-81
2021/12/14 13:16:26;;;;;;;;;34.50;32.00;;;;;;;;5076002;27;45457;-81
2021/12/14 13:19:13;;;;;;;;;42.75;35.25;;;;;;;;5057782;28;46123;-81
2021/12/14 13:21:45;;;;;;;;;40.75;35.25;;;;;;;;5056921;28;45525;-81
2021/12/14 13:24:11;;;;;;;;;51.50;40.50;;;;;;;;5058940;28;45268;-80
2021/12/14 13:26:36;;;;;;;;;38.75;33.50;;;;;;;;5058044;28;45244;-82
2021/12/14 13:29:06;;;;;;;;;45.25;35.25;;;;;;;;5058014;28;46110;-81
2021/12/14 13:31:37;;;;;;;;;39.50;32.75;;;;;;;;5060012;28;45475;-82
2021/12/14 13:34:04;;;;;;;;;40.75;34.75;;;;;;;;5056742;28;45710;-81
2021/12/14 13:36:29;;;;;;;;;42.25;33.25;;;;;;;;5057835;28;45428;-81
2021/12/14 13:38:55;;;;;;;;;37.25;32.25;;;;;;;;5090069;27;47469;-81
2021/12/14 13:43:55;;;;;;;;;38.75;33.50;;;;;;;;5245099;22;45297;-81
2021/12/14 13:46:20;;;;;;;;;40.50;35.75;;;;;;;;5110049;27;45315;-81
2021/12/14 13:48:46;;;;;;;;;38.50;33.50;;;;;;;;5102931;27;45707;-81
2021/12/14 13:51:21;;;;;;;;;35.50;31.00;;;;;;;;5106305;27;45411;-80
2021/12/14 13:53:48;;;;;;;;;45.75;37.25;;;;;;;;5112090;27;45495;-80
2021/12/14 13:56:17;;;;;;;;;48.75;36.00;;;;;;;;5095148;27;45604;-79
2021/12/14 13:58:42;;;;;;;;;38.00;33.75;;;;;;;;5115726;27;45304;-79
2021/12/14 14:01:10;;;;;;;;;41.50;34.00;;;;;;;;5129343;27;44963;-81
2021/12/14 14:03:39;;;;;;;;;35.75;33.25;;;;;;;;5094405;27;45264;-81
2021/12/14 14:06:07;;;;;;;;;43.50;34.75;;;;;;;;5103594;27;45367;-81
2021/12/14 14:08:35;;;;;;;;;42.75;33.00;;;;;;;;5092824;27;46368;-80
2021/12/14 14:11:07;;;;;;;;;41.00;34.75;;;;;;;;5114408;27;45374;-81
2021/12/14 14:13:34;;;;;;;;;46.50;36.25;;;;;;;;5102071;27;45419;-81
2021/12/14 14:16:01;;;;;;;;;39.00;34.00;;;;;;;;5106701;27;45299;-81
2021/12/14 14:18:42;;;;;;;;;38.25;33.50;;;;;;;;5085912;27;46201;-83
2021/12/14 14:21:08;;;;;;;;;37.50;33.25;;;;;;;;5099118;27;45599;-81
2021/12/14 14:23:42;;;;;;;;;29.75;28.25;;;;;;;;5098590;27;45346;-81
2021/12/14 14:26:13;;;;;;;;;39.25;34.75;;;;;;;;5093736;27;45447;-80
2021/12/14 14:28:41;;;;;;;;;38.50;29.50;;;;;;;;5103576;27;45516;-80
2021/12/14 14:31:08;;;;;;;;;38.75;34.25;;;;;;;;5098431;27;45400;-80
2021/12/14 14:33:48;;;;;;;;;40.00;33.75;;;;;;;;5099609;27;45325;-81
2021/12/14 14:36:22;;;;;;;;;39.75;32.75;;;;;;;;5242159;22;45518;-80
2021/12/14 14:38:49;;;;;;;;;41.75;34.50;;;;;;;;5107674;27;45599;-80
2021/12/14 14:41:14;;;;;;;;;37.00;33.00;;;;;;;;5109609;22;45430;-81
2021/12/14 14:43:58;;;;;;;;;23.60;22.20;;;;;;;;5099545;27;45423;-81
2021/12/14 14:46:39;;;;;;;;;42.75;33.50;;;;;;;;5097551;27;45438;-80
2021/12/14 14:49:14;;;;;;;;;39.50;33.50;;;;;;;;5098533;27;46404;-82
2021/12/14 14:51:51;;;;;;;;;42.00;34.00;;;;;;;;5097630;27;45517;-82
2021/12/14 14:54:34;;;;;;;;;38.50;32.50;;;;;;;;5097680;27;45543;-82
2021/12/14 14:57:08;;;;;;;;;38.25;33.50;;;;;;;;5098669;27;45242;-81
2021/12/14 14:59:34;;;;;;;;;41.75;34.25;;;;;;;;5097551;27;45317;-82
2021/12/14 15:01:59;;;;;;;;;47.25;37.00;;;;;;;;5095344;27;45239;-80
2021/12/14 15:04:25;;;;;;;;;43.25;34.25;;;;;;;;5099310;27;45346;-82
2021/12/14 15:06:51;;;;;;;;;42.50;36.00;;;;;;;;5097707;27;45400;-82